Terminal Aerodrome Forecast
Issued by NWS

Home | Current Version | Previous Version | Text Only | Print | Product List | Glossary Off
Versions: 1 2 3 4 5 6 7 8 9 10 11 12 13 14 15 16 17 18 19 20 21 22 23 24 25 26 27

250
FTUS42 KMHX 291657 AAC
TAFPGV
TAF AMD
KPGV 291657Z 2917/3012 01006KT P6SM OVC009
     FM291730 01006KT P6SM BKN015
     FM291900 36006KT P6SM SCT040
     FM300800 VRB04KT 4SM BR SCT007 BKN020
      AMD LTD TO CLD VIS AND WIND=

USA.gov is the U.S. government's official web portal to all federal, state and local government web resources and services.